createdAt,value
2023-01-19T00:02:37.413Z,99660.31
2023-01-19T00:06:49.067Z,99664.81
2023-01-19T00:11:00.742Z,99652.59
2023-01-19T00:15:12.558Z,99634.63
2023-01-19T00:19:24.185Z,99665.06
2023-01-19T00:23:35.808Z,99648.50
2023-01-19T00:27:49.458Z,99643.59
2023-01-19T00:32:01.760Z,99653.22
2023-01-19T00:36:13.445Z,99641.19
2023-01-19T00:40:25.254Z,99627.06
2023-01-19T00:44:36.870Z,99666.31
2023-01-19T00:48:48.539Z,99645.47
2023-01-19T00:53:01.683Z,99649.53
2023-01-19T00:57:15.675Z,99647.91
2023-01-19T01:01:45.783Z,99643.44
2023-01-19T01:05:58.254Z,99636.06
2023-01-19T01:10:16.049Z,99640.56
2023-01-19T01:14:27.901Z,99648.31
2023-01-19T01:18:39.706Z,99624.03
2023-01-19T01:22:53.087Z,99641.16
2023-01-19T01:27:04.728Z,99639.75
2023-01-19T01:31:16.630Z,99631.75
2023-01-19T01:35:28.319Z,99614.03
2023-01-19T01:39:39.913Z,99631.38
2023-01-19T01:43:56.923Z,99634.84
2023-01-19T01:48:23.621Z,99649.53
2023-01-19T01:52:40.282Z,99645.06
2023-01-19T01:56:55.348Z,99622.16
2023-01-19T02:01:26.619Z,99643.81
2023-01-19T02:05:42.969Z,99660.75
2023-01-19T02:10:13.157Z,99647.84
2023-01-19T02:14:24.846Z,99649.84
2023-01-19T02:18:37.648Z,99671.25
2023-01-19T02:22:51.837Z,99652.84
2023-01-19T02:27:05.074Z,99661.38
2023-01-19T02:31:17.509Z,99652.31
2023-01-19T02:35:30.934Z,99672.69
2023-01-19T02:39:47.782Z,99671.22
2023-01-19T02:44:01.066Z,99669.16
2023-01-19T02:48:12.932Z,99658.13
2023-01-19T02:52:25.690Z,99667.50
2023-01-19T02:56:37.288Z,99661.19
2023-01-19T03:01:09.721Z,99674.50
2023-01-19T03:05:28.814Z,99669.78
2023-01-19T03:09:53.937Z,99670.22
2023-01-19T03:14:14.695Z,99677.59
2023-01-19T03:18:28.911Z,99681.88
2023-01-19T03:22:42.453Z,99657.91
2023-01-19T03:27:00.341Z,99692.03
2023-01-19T03:31:21.306Z,99712.44
2023-01-19T03:35:36.837Z,99690.78
2023-01-19T03:39:48.664Z,99705.94
2023-01-19T03:44:01.329Z,99712.72
2023-01-19T03:48:13.133Z,99711.91
2023-01-19T03:52:29.992Z,99701.94
2023-01-19T03:56:43.485Z,99705.19
2023-01-19T04:00:55.170Z,99723.44
2023-01-19T04:05:07.121Z,99726.09
2023-01-19T04:09:20.075Z,99724.66
2023-01-19T04:13:31.990Z,99712.84
2023-01-19T04:17:43.567Z,99725.09
2023-01-19T04:21:55.742Z,99737.13
2023-01-19T04:26:09.036Z,99741.47
2023-01-19T04:30:20.907Z,99728.31
2023-01-19T04:34:32.979Z,99729.25
2023-01-19T04:38:46.646Z,99738.66
2023-01-19T04:42:58.488Z,99722.94
2023-01-19T04:47:10.452Z,99739.88
2023-01-19T04:51:22.133Z,99743.38
2023-01-19T04:55:34.326Z,99739.09
2023-01-19T04:59:46.023Z,99753.00
2023-01-19T05:04:01.278Z,99752.38
2023-01-19T05:08:17.148Z,99752.78
2023-01-19T05:12:28.887Z,99752.78
2023-01-19T05:16:40.599Z,99748.25
2023-01-19T05:20:52.205Z,99772.16
2023-01-19T05:25:04.062Z,99737.38
2023-01-19T05:29:15.847Z,99751.47
2023-01-19T05:33:27.832Z,99767.34
2023-01-19T05:37:39.798Z,99777.78
2023-01-19T05:41:51.458Z,99775.31
2023-01-19T05:46:06.579Z,99792.53
2023-01-19T05:50:18.290Z,99796.00
2023-01-19T05:54:29.837Z,99802.72
2023-01-19T05:58:41.439Z,99769.59
2023-01-19T06:02:53.746Z,99797.66
2023-01-19T06:07:06.966Z,99809.47
2023-01-19T06:11:18.716Z,99797.59
2023-01-19T06:15:30.319Z,99826.19
2023-01-19T06:19:42.136Z,99827.63
2023-01-19T06:23:53.757Z,99829.47
2023-01-19T06:28:05.454Z,99840.91
2023-01-19T06:32:17.482Z,99836.84
2023-01-19T06:36:29.284Z,99836.91
2023-01-19T06:40:41.242Z,99875.16
2023-01-19T06:44:52.751Z,99861.47
2023-01-19T06:49:04.510Z,99872.50
2023-01-19T06:53:17.094Z,99875.38
2023-01-19T06:57:28.678Z,99881.81
2023-01-19T07:01:40.456Z,99902.84
2023-01-19T07:05:53.295Z,99906.88
2023-01-19T07:10:08.139Z,99909.91
2023-01-19T07:14:20.896Z,99932.41
2023-01-19T07:18:32.783Z,99954.13
2023-01-19T07:22:46.591Z,99920.69
2023-01-19T07:26:58.621Z,99946.38
2023-01-19T07:31:10.790Z,99969.09
2023-01-19T07:35:23.123Z,99981.75
2023-01-19T07:39:36.737Z,99967.22
2023-01-19T07:43:51.232Z,99963.94
2023-01-19T07:48:02.863Z,99968.59
2023-01-19T07:52:14.568Z,99950.84
2023-01-19T07:56:27.773Z,99975.75
2023-01-19T08:00:39.727Z,100000.84
2023-01-19T08:04:52.059Z,99998.97
2023-01-19T08:09:08.450Z,99997.38
2023-01-19T08:13:20.075Z,99970.69
2023-01-19T08:17:31.697Z,99991.00
2023-01-19T08:21:43.394Z,100016.34
2023-01-19T08:25:55.298Z,100032.31
2023-01-19T08:30:07.300Z,100048.44
2023-01-19T08:34:18.841Z,100054.00
2023-01-19T08:38:30.685Z,100050.34
2023-01-19T08:42:42.219Z,100064.34
2023-01-19T08:46:54.541Z,100067.00
2023-01-19T08:51:06.258Z,100072.78
2023-01-19T08:55:17.996Z,100058.47
2023-01-19T08:59:29.536Z,100061.53
2023-01-19T09:03:41.135Z,100060.00
2023-01-19T09:07:52.641Z,100068.88
2023-01-19T09:12:04.401Z,100089.84
2023-01-19T09:16:16.164Z,100092.97
2023-01-19T09:20:31.013Z,100098.19
2023-01-19T09:24:42.637Z,100099.59
2023-01-19T09:28:54.296Z,100096.63
2023-01-19T09:33:11.560Z,100108.34
2023-01-19T09:37:23.320Z,100099.41
2023-01-19T09:41:38.552Z,100101.44
2023-01-19T09:46:15.247Z,100107.56
2023-01-19T09:50:41.080Z,100116.34
2023-01-19T09:54:58.268Z,100115.53
2023-01-19T09:59:24.731Z,100125.41
2023-01-19T10:03:41.332Z,100116.28
2023-01-19T10:08:24.088Z,100132.38
2023-01-19T10:13:00.048Z,100117.84
2023-01-19T10:17:35.140Z,100142.44
2023-01-19T10:21:47.939Z,100130.66
2023-01-19T10:26:04.576Z,100149.81
2023-01-19T10:30:23.519Z,100156.09
2023-01-19T10:34:35.485Z,100153.47
2023-01-19T10:38:48.435Z,100153.47
2023-01-19T10:43:41.582Z,100164.88
2023-01-19T10:47:55.351Z,100149.66
2023-01-19T10:52:09.022Z,100151.56
2023-01-19T10:56:28.416Z,100157.53
2023-01-19T11:00:42.120Z,100156.41
2023-01-19T11:04:56.557Z,100154.06
2023-01-19T11:09:19.955Z,100152.00
2023-01-19T11:13:32.417Z,100158.28
2023-01-19T11:17:46.295Z,100174.34
2023-01-19T11:22:15.025Z,100165.91
2023-01-19T11:26:28.897Z,100171.59
2023-01-19T11:30:57.957Z,100164.34
2023-01-19T11:35:39.063Z,100177.00
2023-01-19T11:39:57.034Z,100157.88
2023-01-19T11:44:26.805Z,100167.47
2023-01-19T11:48:46.656Z,100168.34
2023-01-19T11:53:21.810Z,100179.13
2023-01-19T11:57:33.583Z,100162.94
2023-01-19T12:01:51.304Z,100167.69
2023-01-19T12:06:37.759Z,100173.44
2023-01-19T12:10:52.737Z,100160.94
2023-01-19T12:15:22.996Z,100168.91
2023-01-19T12:20:01.168Z,100154.84
2023-01-19T12:24:17.942Z,100153.97
2023-01-19T12:28:33.005Z,100166.03
2023-01-19T12:32:44.688Z,100158.97
2023-01-19T12:37:06.177Z,100162.81
2023-01-19T12:41:21.513Z,100163.59
2023-01-19T12:45:35.591Z,100161.56
2023-01-19T12:49:54.048Z,100156.94
2023-01-19T12:54:08.657Z,100167.78
2023-01-19T12:58:25.264Z,100160.22
2023-01-19T13:02:47.023Z,100160.78
2023-01-19T13:07:00.282Z,100166.78
2023-01-19T13:11:19.819Z,100160.69
2023-01-19T13:15:36.139Z,100169.63
2023-01-19T13:19:53.648Z,100168.50
2023-01-19T13:24:10.758Z,100161.22
2023-01-19T13:28:30.567Z,100171.91
2023-01-19T13:32:42.661Z,100167.13
2023-01-19T13:36:59.185Z,100171.09
2023-01-19T13:41:16.697Z,100168.84
2023-01-19T13:45:38.151Z,100192.25
2023-01-19T13:49:59.334Z,100176.09
2023-01-19T13:54:17.412Z,100176.97
2023-01-19T13:58:30.315Z,100192.34
2023-01-19T14:02:53.051Z,100189.47
2023-01-19T14:07:13.756Z,100192.94
2023-01-19T14:11:25.402Z,100194.38
2023-01-19T14:15:38.520Z,100207.97
2023-01-19T14:19:55.761Z,100212.22
2023-01-19T14:24:18.138Z,100207.09
2023-01-19T14:28:42.311Z,100207.06
2023-01-19T14:32:54.421Z,100210.56
2023-01-19T14:37:15.063Z,100207.88
2023-01-19T14:41:36.092Z,100213.81
2023-01-19T14:45:47.826Z,100229.19
2023-01-19T14:50:07.460Z,100211.13
2023-01-19T14:54:50.703Z,100225.84
2023-01-19T14:59:08.527Z,100213.09
2023-01-19T15:03:20.268Z,100235.03
2023-01-19T15:07:31.986Z,100227.41
2023-01-19T15:11:46.478Z,100228.41
2023-01-19T15:15:58.964Z,100246.06
2023-01-19T15:20:16.124Z,100236.00
2023-01-19T15:24:27.853Z,100253.41
2023-01-19T15:28:39.417Z,100241.06
2023-01-19T15:32:50.997Z,100262.19
2023-01-19T15:37:02.580Z,100262.16
2023-01-19T15:41:23.671Z,100272.19
2023-01-19T15:45:37.596Z,100269.03
2023-01-19T15:49:49.138Z,100280.69
2023-01-19T15:54:01.111Z,100278.97
2023-01-19T15:58:14.106Z,100286.94
2023-01-19T16:02:25.717Z,100283.59
2023-01-19T16:06:37.551Z,100305.69
2023-01-19T16:10:49.092Z,100292.69
2023-01-19T16:15:00.796Z,100299.53
2023-01-19T16:19:14.733Z,100315.69
2023-01-19T16:23:26.431Z,100296.53
2023-01-19T16:27:38.192Z,100307.91
2023-01-19T16:31:50.541Z,100308.59
2023-01-19T16:36:28.248Z,100305.63
2023-01-19T16:40:40.054Z,100313.97
2023-01-19T16:44:51.737Z,100322.19
2023-01-19T16:49:12.575Z,100328.81
2023-01-19T16:53:24.365Z,100322.16
2023-01-19T16:57:38.846Z,100331.41
2023-01-19T17:01:51.897Z,100353.22
2023-01-19T17:06:03.624Z,100354.69
2023-01-19T17:10:15.470Z,100338.31
2023-01-19T17:14:27.187Z,100369.44
2023-01-19T17:18:38.977Z,100359.19
2023-01-19T17:22:50.753Z,100361.94
2023-01-19T17:27:02.434Z,100373.63
2023-01-19T17:31:19.348Z,100388.06
2023-01-19T17:35:34.305Z,100379.25
2023-01-19T17:39:45.929Z,100374.03
2023-01-19T17:43:59.727Z,100374.03
2023-01-19T17:48:13.381Z,100371.81
2023-01-19T17:52:25.011Z,100381.22
2023-01-19T17:56:38.637Z,100391.31
2023-01-19T18:00:50.535Z,100385.34
2023-01-19T18:05:02.998Z,100385.34
2023-01-19T18:09:14.551Z,100383.41
2023-01-19T18:13:26.728Z,100395.81
2023-01-19T18:17:38.476Z,100397.22
2023-01-19T18:21:51.033Z,100398.22
2023-01-19T18:26:08.865Z,100423.56
2023-01-19T18:30:21.211Z,100412.88
2023-01-19T18:34:32.768Z,100410.41
2023-01-19T18:38:45.220Z,100410.25
2023-01-19T18:42:56.796Z,100410.25
2023-01-19T18:47:08.386Z,100410.53
2023-01-19T18:51:20.146Z,100428.47
2023-01-19T18:55:31.790Z,100418.53
2023-01-19T18:59:44.039Z,100419.81
2023-01-19T19:03:56.746Z,100420.91
2023-01-19T19:08:08.618Z,100433.81
2023-01-19T19:12:20.535Z,100435.28
2023-01-19T19:16:35.120Z,100435.38
2023-01-19T19:20:47.325Z,100428.84
2023-01-19T19:24:58.921Z,100434.38
2023-01-19T19:29:11.918Z,100439.66
2023-01-19T19:33:23.427Z,100434.63
2023-01-19T19:37:34.930Z,100438.19
2023-01-19T19:41:46.604Z,100468.03
2023-01-19T19:46:07.280Z,100462.47
2023-01-19T19:50:19.024Z,100468.13
2023-01-19T19:54:30.619Z,100460.81
2023-01-19T19:58:42.888Z,100473.44
2023-01-19T20:02:55.063Z,100478.66
2023-01-19T20:07:06.588Z,100490.97
2023-01-19T20:11:20.800Z,100493.63
2023-01-19T20:15:35.059Z,100500.84
2023-01-19T20:19:48.815Z,100511.81
2023-01-19T20:24:03.135Z,100510.84
2023-01-19T20:28:14.750Z,100519.41
2023-01-19T20:32:26.361Z,100527.88
2023-01-19T20:36:38.322Z,100533.81
2023-01-19T20:40:49.882Z,100543.09
2023-01-19T20:45:20.076Z,100544.75
2023-01-19T20:50:03.056Z,100541.59
2023-01-19T20:54:26.095Z,100557.47
2023-01-19T20:58:38.649Z,100560.47
2023-01-19T21:02:50.325Z,100557.50
2023-01-19T21:07:02.148Z,100574.06
2023-01-19T21:11:13.969Z,100562.50
2023-01-19T21:15:25.792Z,100543.00
2023-01-19T21:19:37.518Z,100570.41
2023-01-19T21:23:50.059Z,100570.72
2023-01-19T21:28:01.787Z,100569.06
2023-01-19T21:32:13.925Z,100575.47
2023-01-19T21:36:26.389Z,100578.13
2023-01-19T21:40:38.099Z,100597.19
2023-01-19T21:44:50.188Z,100600.81
2023-01-19T21:49:04.627Z,100597.19
2023-01-19T21:53:16.349Z,100600.81
2023-01-19T21:57:28.056Z,100584.59
2023-01-19T22:01:39.866Z,100601.00
2023-01-19T22:05:51.686Z,100597.34
2023-01-19T22:10:04.198Z,100605.47
2023-01-19T22:14:16.275Z,100607.53
2023-01-19T22:18:28.076Z,100607.75
2023-01-19T22:22:39.689Z,100627.25
2023-01-19T22:26:51.326Z,100620.47
2023-01-19T22:31:12.094Z,100622.41
2023-01-19T22:35:23.776Z,100621.94
2023-01-19T22:39:35.577Z,100619.81
2023-01-19T22:43:48.516Z,100621.63
2023-01-19T22:48:00.113Z,100619.34
2023-01-19T22:52:11.701Z,100644.88
2023-01-19T22:56:28.219Z,100649.53
2023-01-19T23:00:39.849Z,100636.25
2023-01-19T23:04:51.437Z,100631.47
2023-01-19T23:09:09.769Z,100628.34
2023-01-19T23:13:21.327Z,100642.78
2023-01-19T23:17:32.885Z,100638.53
2023-01-19T23:21:45.268Z,100641.69
2023-01-19T23:26:04.850Z,100640.09
2023-01-19T23:30:16.864Z,100643.75
2023-01-19T23:34:28.466Z,100657.50
2023-01-19T23:38:40.631Z,100667.78
2023-01-19T23:42:54.951Z,100650.56
2023-01-19T23:47:06.546Z,100659.81
2023-01-19T23:51:26.479Z,100667.94
2023-01-19T23:55:38.206Z,100660.16
2023-01-19T23:59:49.837Z,100660.97
